Terminal Aerodrome Forecast
Issued by NWS

Home | Current Version | Previous Version | Text Only | Print | Product List | Glossary On
Versions: 1 2 3 4 5 6 7 8 9 10 11 12 13 14 15 16 17 18 19 20 21 22 23
000
FTUS41 KOKX 310553
TAFSWF
TAF
KSWF 310553Z 3106/0112 27005KT P6SM SCT120 BKN250
     FM311400 34007KT P6SM FEW050
     FM311800 30008KT P6SM FEW080
     FM010000 33005KT P6SM FEW080
     FM010200 VRB03KT P6SM FEW080
     FM010500 04004KT P6SM FEW080
     FM010800 VRB03KT P6SM FEW080
      AMD NOT SKED=

USA.gov is the U.S. government's official web portal to all federal, state and local government web resources and services.